createdAt,value
2023-02-23T00:01:53.299Z,3.92
2023-02-23T00:04:20.401Z,6.03
2023-02-23T00:06:47.831Z,5.22
2023-02-23T00:09:24.643Z,4.45
2023-02-23T00:11:56.785Z,4.82
2023-02-23T00:14:28.873Z,4.20
2023-02-23T00:16:57.188Z,4.43
2023-02-23T00:19:24.988Z,4.80
2023-02-23T00:24:19.892Z,5.07
2023-02-23T00:26:48.546Z,4.63
2023-02-23T00:29:21.471Z,5.15
2023-02-23T00:31:50.045Z,4.50
2023-02-23T00:34:22.062Z,4.13
2023-02-23T00:36:55.078Z,5.53
2023-02-23T00:39:29.581Z,4.10
2023-02-23T00:41:57.195Z,5.53
2023-02-23T00:44:25.084Z,5.32
2023-02-23T00:51:51.358Z,4.90
2023-02-23T00:54:20.447Z,5.30
2023-02-23T00:56:47.841Z,4.25
2023-02-23T00:59:16.684Z,7.25
2023-02-23T01:01:43.924Z,5.63
2023-02-23T01:04:12.618Z,6.10
2023-02-23T01:06:41.366Z,4.75
2023-02-23T01:09:11.425Z,5.72
2023-02-23T01:11:39.905Z,5.80
2023-02-23T01:14:08.685Z,5.32
2023-02-23T01:16:35.809Z,5.10
2023-02-23T01:19:04.899Z,5.57
2023-02-23T01:21:37.842Z,4.95
2023-02-23T01:24:06.551Z,4.07
2023-02-23T01:26:39.065Z,4.68
2023-02-23T01:29:15.956Z,4.53
2023-02-23T01:31:51.170Z,5.10
2023-02-23T01:34:21.904Z,4.78
2023-02-23T01:36:49.311Z,5.75
2023-02-23T01:39:20.886Z,5.95
2023-02-23T01:41:52.605Z,4.63
2023-02-23T01:44:23.072Z,5.20
2023-02-23T01:46:50.758Z,5.28
2023-02-23T01:49:25.624Z,5.07
2023-02-23T01:52:06.467Z,7.70
2023-02-23T01:54:38.198Z,4.95
2023-02-23T01:57:13.710Z,4.53
2023-02-23T01:59:49.974Z,4.88
2023-02-23T02:02:26.122Z,5.63
2023-02-23T02:04:55.968Z,4.22
2023-02-23T02:07:31.169Z,5.28
2023-02-23T02:10:11.248Z,5.00
2023-02-23T02:12:44.412Z,4.55
2023-02-23T02:15:17.459Z,4.68
2023-02-23T02:18:18.602Z,6.20
2023-02-23T02:21:28.696Z,3.72
2023-02-23T02:24:31.182Z,5.43
2023-02-23T02:27:37.762Z,5.38
2023-02-23T02:30:34.983Z,5.40
2023-02-23T02:33:35.032Z,5.57
2023-02-23T02:36:41.397Z,4.68
2023-02-23T02:39:17.521Z,6.30
2023-02-23T02:42:02.606Z,7.30
2023-02-23T02:44:32.519Z,4.65
2023-02-23T02:47:08.153Z,4.88
2023-02-23T02:49:42.888Z,3.75
2023-02-23T02:52:18.983Z,5.22
2023-02-23T02:54:53.536Z,5.53
2023-02-23T02:57:25.114Z,5.53
2023-02-23T03:00:11.076Z,5.03
2023-02-23T03:02:59.330Z,4.22
2023-02-23T03:05:56.720Z,6.50
2023-02-23T03:11:33.193Z,5.85
2023-02-23T03:15:07.697Z,4.35
2023-02-23T03:18:06.804Z,5.72
2023-02-23T03:20:52.253Z,5.20
2023-02-23T03:23:55.727Z,6.50
2023-02-23T03:26:47.373Z,4.78
2023-02-23T03:29:55.871Z,5.32
2023-02-23T03:32:52.376Z,5.18
2023-02-23T03:35:45.987Z,5.97
2023-02-23T03:38:57.648Z,5.65
2023-02-23T03:41:47.051Z,4.82
2023-02-23T03:44:39.662Z,6.18
2023-02-23T03:47:28.712Z,5.80
2023-02-23T03:50:20.098Z,5.03
2023-02-23T03:53:11.174Z,5.78
2023-02-23T03:56:01.224Z,5.85
2023-02-23T03:58:52.258Z,5.32
2023-02-23T04:01:40.609Z,5.65
2023-02-23T04:04:28.997Z,5.07
2023-02-23T04:07:17.184Z,5.93
2023-02-23T04:10:03.505Z,5.97
2023-02-23T04:13:01.240Z,5.45
2023-02-23T04:15:34.224Z,5.28
2023-02-23T04:18:04.663Z,7.13
2023-02-23T04:20:35.341Z,5.32
2023-02-23T04:23:02.482Z,6.32
2023-02-23T04:25:30.555Z,7.38
2023-02-23T04:27:57.757Z,7.88
2023-02-23T04:30:25.763Z,7.10
2023-02-23T04:32:53.036Z,6.68
2023-02-23T04:35:20.758Z,8.73
2023-02-23T04:37:47.905Z,6.72
2023-02-23T04:40:15.058Z,6.28
2023-02-23T04:42:42.245Z,5.68
2023-02-23T04:45:10.625Z,8.95
2023-02-23T04:47:38.188Z,6.15
2023-02-23T04:50:05.900Z,6.20
2023-02-23T04:52:35.033Z,6.03
2023-02-23T04:55:02.107Z,5.88
2023-02-23T04:57:29.239Z,7.07
2023-02-23T04:59:56.610Z,4.57
2023-02-23T05:02:24.393Z,5.55
2023-02-23T05:07:18.869Z,7.32
2023-02-23T05:09:45.905Z,5.72
2023-02-23T05:12:13.020Z,5.53
2023-02-23T05:14:40.072Z,6.03
2023-02-23T05:17:08.782Z,6.25
2023-02-23T05:19:37.229Z,5.70
2023-02-23T05:22:04.346Z,5.88
2023-02-23T05:24:31.375Z,5.35
2023-02-23T05:26:58.973Z,5.43
2023-02-23T05:29:26.019Z,5.43
2023-02-23T05:31:55.058Z,7.05
2023-02-23T05:34:22.290Z,6.07
2023-02-23T05:36:49.585Z,7.55
2023-02-23T05:39:16.621Z,9.93
2023-02-23T05:41:43.743Z,6.43
2023-02-23T05:44:10.882Z,7.22
2023-02-23T05:46:38.604Z,6.50
2023-02-23T05:49:05.980Z,6.88
2023-02-23T05:51:35.195Z,6.25
2023-02-23T05:54:02.521Z,5.95
2023-02-23T05:56:32.714Z,5.90
2023-02-23T05:58:59.925Z,7.00
2023-02-23T06:01:27.438Z,6.50
2023-02-23T06:03:54.621Z,5.85
2023-02-23T06:06:23.682Z,6.60
2023-02-23T06:08:51.738Z,5.40
2023-02-23T06:11:19.336Z,5.22
2023-02-23T06:13:46.652Z,6.28
2023-02-23T06:16:13.934Z,7.30
2023-02-23T06:18:41.110Z,6.05
2023-02-23T06:21:08.561Z,6.03
2023-02-23T06:23:35.639Z,7.38
2023-02-23T06:26:08.535Z,6.68
2023-02-23T06:28:36.016Z,5.60
2023-02-23T06:31:04.558Z,7.45
2023-02-23T06:33:31.729Z,6.85
2023-02-23T06:35:58.930Z,5.50
2023-02-23T06:38:29.809Z,7.10
2023-02-23T06:40:56.884Z,8.68
2023-02-23T06:43:25.851Z,5.97
2023-02-23T06:45:52.967Z,6.30
2023-02-23T06:48:20.045Z,8.13
2023-02-23T06:50:47.655Z,8.27
2023-02-23T06:53:15.301Z,6.93
2023-02-23T06:55:42.452Z,7.30
2023-02-23T06:58:09.627Z,4.63
2023-02-23T07:00:37.443Z,6.40
2023-02-23T07:05:31.572Z,6.28
2023-02-23T07:07:58.792Z,8.10
2023-02-23T07:10:25.943Z,6.95
2023-02-23T07:12:54.591Z,7.22
2023-02-23T07:15:24.722Z,7.80
2023-02-23T07:17:52.907Z,6.95
2023-02-23T07:20:20.304Z,6.35
2023-02-23T07:22:49.682Z,6.45
2023-02-23T07:25:16.767Z,7.60
2023-02-23T07:27:45.305Z,6.45
2023-02-23T07:30:13.246Z,8.00
2023-02-23T07:32:41.354Z,8.38
2023-02-23T07:35:09.166Z,8.02
2023-02-23T07:40:06.173Z,7.05
2023-02-23T07:42:33.831Z,8.15
2023-02-23T07:45:01.408Z,6.90
2023-02-23T07:47:31.500Z,8.50
2023-02-23T07:50:03.615Z,6.95
2023-02-23T07:52:31.664Z,8.52
2023-02-23T07:54:58.775Z,7.18
2023-02-23T07:57:28.636Z,7.68
2023-02-23T07:59:59.206Z,7.63
2023-02-23T08:02:29.378Z,9.73
2023-02-23T08:04:56.486Z,7.28
2023-02-23T08:07:28.885Z,8.50
2023-02-23T08:09:56.100Z,7.03
2023-02-23T08:12:23.582Z,8.40
2023-02-23T08:14:50.919Z,7.65
2023-02-23T08:17:20.952Z,7.75
2023-02-23T08:19:48.450Z,7.88
2023-02-23T08:22:15.972Z,7.30
2023-02-23T08:24:43.149Z,7.82
2023-02-23T08:27:13.999Z,6.82
2023-02-23T08:29:41.131Z,6.75
2023-02-23T08:32:13.164Z,7.82
2023-02-23T08:34:43.462Z,8.90
2023-02-23T08:37:11.773Z,6.60
2023-02-23T08:39:43.558Z,7.57
2023-02-23T08:42:10.725Z,8.23
2023-02-23T08:44:37.755Z,10.32
2023-02-23T08:47:07.455Z,7.50
2023-02-23T08:49:35.629Z,6.47
2023-02-23T08:52:03.113Z,9.63
2023-02-23T08:54:30.603Z,8.88
2023-02-23T08:56:58.342Z,6.95
2023-02-23T08:59:26.314Z,8.70
2023-02-23T09:04:20.549Z,7.80
2023-02-23T09:06:50.614Z,7.50
2023-02-23T09:09:20.910Z,8.68
2023-02-23T09:11:49.116Z,7.25
2023-02-23T09:14:19.389Z,6.80
2023-02-23T09:16:47.836Z,5.10
2023-02-23T09:19:21.179Z,6.88
2023-02-23T09:21:50.837Z,6.65
2023-02-23T09:24:24.261Z,7.13
2023-02-23T09:26:53.529Z,7.82
2023-02-23T09:29:26.380Z,6.40
2023-02-23T09:31:53.600Z,8.57
2023-02-23T09:36:52.274Z,5.55
2023-02-23T09:39:36.887Z,7.63
2023-02-23T09:42:25.847Z,5.88
2023-02-23T09:45:37.744Z,7.15
2023-02-23T09:48:21.228Z,7.43
2023-02-23T09:50:57.417Z,7.40
2023-02-23T09:53:32.800Z,5.85
2023-02-23T09:56:18.663Z,6.93
2023-02-23T09:58:49.585Z,7.50
2023-02-23T10:01:35.141Z,7.88
2023-02-23T10:04:17.684Z,6.20
2023-02-23T10:06:55.200Z,6.18
2023-02-23T10:11:58.830Z,6.38
2023-02-23T10:14:44.658Z,7.18
2023-02-23T10:17:48.676Z,5.88
2023-02-23T10:20:43.469Z,8.18
2023-02-23T10:23:15.137Z,5.65
2023-02-23T10:25:48.557Z,5.88
2023-02-23T10:28:20.573Z,6.60
2023-02-23T10:31:26.592Z,6.95
2023-02-23T10:33:58.118Z,6.43
2023-02-23T10:36:35.393Z,7.03
2023-02-23T10:39:07.385Z,6.55
2023-02-23T10:41:40.186Z,8.10
2023-02-23T10:44:24.507Z,8.05
2023-02-23T10:46:58.158Z,4.50
2023-02-23T10:49:39.014Z,5.70
2023-02-23T10:52:15.737Z,5.93
2023-02-23T10:54:47.644Z,5.10
2023-02-23T10:57:30.654Z,7.15
2023-02-23T11:00:06.990Z,6.97
2023-02-23T11:02:36.414Z,6.22
2023-02-23T11:05:05.760Z,6.88
2023-02-23T11:07:34.491Z,5.80
2023-02-23T11:10:26.160Z,7.03
2023-02-23T11:13:00.408Z,5.60
2023-02-23T11:15:49.845Z,4.95
2023-02-23T11:18:26.222Z,6.75
2023-02-23T11:20:57.101Z,6.25
2023-02-23T11:23:33.791Z,6.18
2023-02-23T11:26:23.173Z,5.28
2023-02-23T11:28:54.679Z,5.65
2023-02-23T11:31:28.759Z,5.95
2023-02-23T11:34:04.685Z,5.20
2023-02-23T11:36:37.964Z,5.57
2023-02-23T11:39:22.405Z,5.63
2023-02-23T11:42:22.294Z,4.88
2023-02-23T11:45:07.162Z,4.90
2023-02-23T11:47:40.283Z,5.35
2023-02-23T11:50:19.774Z,5.05
2023-02-23T11:52:51.860Z,4.78
2023-02-23T11:55:20.314Z,5.10
2023-02-23T11:57:50.730Z,5.22
2023-02-23T12:00:27.252Z,5.43
2023-02-23T12:03:05.538Z,3.95
2023-02-23T12:05:42.014Z,5.88
2023-02-23T12:08:34.123Z,4.70
2023-02-23T12:11:10.303Z,4.30
2023-02-23T12:14:04.737Z,4.35
2023-02-23T12:16:48.616Z,5.65
2023-02-23T12:19:19.032Z,5.55
2023-02-23T12:21:55.890Z,4.93
2023-02-23T12:24:44.036Z,5.37
2023-02-23T12:27:19.617Z,5.05
2023-02-23T12:30:13.570Z,4.28
2023-02-23T12:33:05.549Z,4.40
2023-02-23T12:35:45.799Z,4.15
2023-02-23T12:38:50.558Z,4.18
2023-02-23T12:41:55.480Z,4.32
2023-02-23T12:44:26.009Z,4.50
2023-02-23T12:46:57.527Z,5.43
2023-02-23T12:49:45.131Z,4.97
2023-02-23T12:52:33.026Z,3.63
2023-02-23T12:55:01.070Z,5.13
2023-02-23T13:00:30.681Z,4.63
2023-02-23T13:03:28.355Z,4.15
2023-02-23T13:06:22.362Z,3.97
2023-02-23T13:09:02.742Z,4.32
2023-02-23T13:12:01.544Z,4.65
2023-02-23T13:14:51.049Z,4.55
2023-02-23T13:17:41.392Z,4.95
2023-02-23T13:20:42.517Z,3.92
2023-02-23T13:23:36.988Z,3.97
2023-02-23T13:26:28.629Z,4.30
2023-02-23T13:29:21.753Z,4.50
2023-02-23T13:31:49.884Z,3.78
2023-02-23T13:34:35.344Z,4.50
2023-02-23T13:37:12.868Z,5.55
2023-02-23T13:40:16.366Z,4.60
2023-02-23T13:43:07.465Z,3.95
2023-02-23T13:45:56.927Z,4.32
2023-02-23T13:48:57.506Z,5.13
2023-02-23T13:51:34.720Z,4.25
2023-02-23T13:54:13.003Z,4.10
2023-02-23T13:56:56.198Z,3.50
2023-02-23T13:59:31.088Z,4.82
2023-02-23T14:02:24.319Z,5.32
2023-02-23T14:04:51.955Z,4.55
2023-02-23T14:07:28.552Z,4.82
2023-02-23T14:10:00.569Z,5.38
2023-02-23T14:12:38.237Z,5.85
2023-02-23T14:18:02.694Z,6.18
2023-02-23T14:20:39.029Z,5.05
2023-02-23T14:23:21.160Z,6.35
2023-02-23T14:26:07.076Z,7.75
2023-02-23T14:28:37.057Z,6.80
2023-02-23T14:31:13.645Z,6.60
2023-02-23T14:33:45.787Z,5.40
2023-02-23T14:36:21.802Z,6.75
2023-02-23T14:39:00.343Z,6.32
2023-02-23T14:41:50.782Z,6.90
2023-02-23T14:44:42.444Z,5.55
2023-02-23T14:47:14.112Z,7.05
2023-02-23T14:49:57.329Z,6.15
2023-02-23T14:52:32.541Z,7.15
2023-02-23T14:55:11.975Z,7.55
2023-02-23T14:57:45.124Z,6.88
2023-02-23T15:00:25.790Z,7.32
2023-02-23T15:03:04.153Z,6.82
2023-02-23T15:05:35.689Z,7.28
2023-02-23T15:08:10.892Z,9.15
2023-02-23T15:10:44.527Z,7.30
2023-02-23T15:13:29.427Z,7.18
2023-02-23T15:16:01.326Z,7.30
2023-02-23T15:19:25.715Z,7.50
2023-02-23T15:21:58.532Z,8.55
2023-02-23T15:24:31.379Z,7.78
2023-02-23T15:27:00.158Z,7.40
2023-02-23T15:29:40.475Z,7.28
2023-02-23T15:32:23.851Z,6.95
2023-02-23T15:34:53.449Z,8.20
2023-02-23T15:37:36.506Z,6.57
2023-02-23T15:40:11.347Z,7.78
2023-02-23T15:42:51.922Z,7.97
2023-02-23T15:45:28.626Z,7.72
2023-02-23T15:48:01.388Z,8.40
2023-02-23T15:50:37.675Z,7.25
2023-02-23T15:53:13.788Z,6.93
2023-02-23T15:55:45.135Z,8.68
2023-02-23T15:58:32.427Z,9.10
2023-02-23T16:01:10.607Z,7.88
2023-02-23T16:03:44.561Z,10.35
2023-02-23T16:06:41.972Z,8.88
2023-02-23T16:11:53.367Z,7.28
2023-02-23T16:14:23.672Z,7.95
2023-02-23T16:17:10.564Z,8.48
2023-02-23T16:19:41.433Z,8.38
2023-02-23T16:22:21.825Z,11.20
2023-02-23T16:24:56.325Z,9.30
2023-02-23T16:27:30.368Z,9.13
2023-02-23T16:30:16.159Z,10.13
2023-02-23T16:32:45.538Z,10.15
2023-02-23T16:35:19.875Z,9.07
2023-02-23T16:38:03.704Z,9.73
2023-02-23T16:40:30.958Z,9.18
2023-02-23T16:42:59.706Z,8.70
2023-02-23T16:45:29.316Z,10.20
2023-02-23T16:48:02.074Z,9.45
2023-02-23T16:50:41.830Z,9.88
2023-02-23T16:53:11.113Z,7.13
2023-02-23T16:55:49.036Z,8.95
2023-02-23T16:58:28.072Z,9.88
2023-02-23T17:00:57.774Z,10.50
2023-02-23T17:03:27.824Z,10.50
2023-02-23T17:06:01.958Z,11.27
2023-02-23T17:08:58.093Z,10.77
2023-02-23T17:11:18.306Z,10.73
2023-02-23T17:16:16.569Z,11.20
2023-02-23T17:18:47.120Z,12.25
2023-02-23T17:21:26.957Z,11.43
2023-02-23T17:24:02.853Z,11.85
2023-02-23T17:26:30.153Z,11.52
2023-02-23T17:28:57.400Z,11.35
2023-02-23T17:31:29.387Z,12.35
2023-02-23T17:34:06.644Z,8.63
2023-02-23T17:36:39.606Z,13.82
2023-02-23T17:39:24.568Z,11.40
2023-02-23T17:41:55.198Z,10.30
2023-02-23T17:44:22.820Z,12.05
2023-02-23T17:46:52.718Z,10.70
2023-02-23T17:49:20.184Z,10.13
2023-02-23T17:51:47.599Z,10.23
2023-02-23T17:54:17.617Z,12.65
2023-02-23T17:56:44.770Z,12.35
2023-02-23T17:59:11.950Z,10.95
2023-02-23T18:01:39.239Z,14.52
2023-02-23T18:04:06.491Z,14.45
2023-02-23T18:06:33.663Z,13.82
2023-02-23T18:09:01.213Z,13.82
2023-02-23T18:11:28.339Z,12.15
2023-02-23T18:13:55.418Z,14.00
2023-02-23T18:16:24.530Z,14.95
2023-02-23T18:18:52.714Z,12.20
2023-02-23T18:21:22.053Z,14.05
2023-02-23T18:23:50.541Z,13.23
2023-02-23T18:26:22.363Z,13.25
2023-02-23T18:28:51.197Z,13.95
2023-02-23T18:31:22.370Z,11.95
2023-02-23T18:33:52.903Z,14.77
2023-02-23T18:36:26.111Z,13.43
2023-02-23T18:38:54.563Z,10.95
2023-02-23T18:41:22.277Z,15.80
2023-02-23T18:43:50.839Z,14.77
2023-02-23T18:46:20.733Z,14.80
2023-02-23T18:48:50.458Z,14.00
2023-02-23T18:51:19.071Z,12.70
2023-02-23T18:53:46.911Z,14.18
2023-02-23T18:56:20.140Z,14.35
2023-02-23T18:58:47.233Z,15.20
2023-02-23T19:01:23.699Z,14.13
2023-02-23T19:03:53.779Z,15.82
2023-02-23T19:06:23.484Z,14.40
2023-02-23T19:09:10.154Z,14.88
2023-02-23T19:11:38.202Z,15.67
2023-02-23T19:14:10.712Z,16.45
2023-02-23T19:16:41.856Z,13.48
2023-02-23T19:19:21.020Z,13.27
2023-02-23T19:21:51.617Z,13.68
2023-02-23T19:24:21.245Z,12.40
2023-02-23T19:26:51.020Z,10.63
2023-02-23T19:29:19.636Z,14.40
2023-02-23T19:31:51.488Z,13.20
2023-02-23T19:34:21.928Z,12.18
2023-02-23T19:36:50.098Z,12.70
2023-02-23T19:39:20.642Z,13.93
2023-02-23T19:42:03.816Z,15.13
2023-02-23T19:44:44.371Z,14.02
2023-02-23T19:47:19.974Z,13.27
2023-02-23T19:49:50.829Z,13.57
2023-02-23T19:52:22.633Z,12.25
2023-02-23T19:54:58.720Z,12.88
2023-02-23T19:57:26.660Z,12.77
2023-02-23T20:00:12.692Z,12.93
2023-02-23T20:02:44.228Z,15.45
2023-02-23T20:05:15.661Z,13.73
2023-02-23T20:07:43.800Z,14.02
2023-02-23T20:10:16.265Z,13.85
2023-02-23T20:12:47.076Z,13.35
2023-02-23T20:15:18.185Z,12.27
2023-02-23T20:17:48.090Z,13.57
2023-02-23T20:20:16.744Z,13.77
2023-02-23T20:22:45.427Z,13.63
2023-02-23T20:25:16.510Z,11.75
2023-02-23T20:27:44.759Z,12.00
2023-02-23T20:30:14.070Z,10.25
2023-02-23T20:32:45.795Z,13.85
2023-02-23T20:35:20.165Z,11.70
2023-02-23T20:37:51.317Z,12.10
2023-02-23T20:40:37.278Z,11.05
2023-02-23T20:43:11.098Z,12.50
2023-02-23T20:45:41.792Z,11.63
2023-02-23T20:48:12.104Z,14.90
2023-02-23T20:50:39.377Z,13.35
2023-02-23T20:53:08.338Z,15.57
2023-02-23T20:55:39.063Z,12.23
2023-02-23T20:58:17.151Z,13.80
2023-02-23T21:00:51.346Z,16.10
2023-02-23T21:03:28.014Z,13.07
2023-02-23T21:05:57.266Z,13.50
2023-02-23T21:08:24.567Z,13.48
2023-02-23T21:10:51.837Z,17.08
2023-02-23T21:13:19.144Z,15.65
2023-02-23T21:15:56.118Z,16.23
2023-02-23T21:18:23.204Z,16.30
2023-02-23T21:20:50.498Z,16.63
2023-02-23T21:23:20.377Z,17.60
2023-02-23T21:25:50.692Z,18.00
2023-02-23T21:28:18.699Z,16.83
2023-02-23T21:30:47.980Z,17.70
2023-02-23T21:33:18.416Z,17.13
2023-02-23T21:35:58.679Z,20.45
2023-02-23T21:38:26.570Z,17.85
2023-02-23T21:43:26.701Z,17.70
2023-02-23T21:46:03.520Z,20.05
2023-02-23T21:48:41.444Z,18.63
2023-02-23T21:51:20.835Z,19.48
2023-02-23T21:53:48.550Z,18.63
2023-02-23T21:56:23.652Z,18.27
2023-02-23T21:58:55.287Z,19.10
2023-02-23T22:01:47.789Z,20.33
2023-02-23T22:04:19.168Z,20.83
2023-02-23T22:06:46.544Z,20.00
2023-02-23T22:09:17.020Z,19.00
2023-02-23T22:11:47.125Z,21.92
2023-02-23T22:14:16.611Z,18.10
2023-02-23T22:16:44.133Z,20.42
2023-02-23T22:19:12.080Z,18.83
2023-02-23T22:24:13.038Z,17.88
2023-02-23T22:26:54.103Z,17.75
2023-02-23T22:29:24.227Z,20.45
2023-02-23T22:31:52.337Z,17.67
2023-02-23T22:34:19.704Z,20.92
2023-02-23T22:36:50.232Z,19.70
2023-02-23T22:39:20.338Z,19.27
2023-02-23T22:41:48.328Z,19.83
2023-02-23T22:44:18.317Z,19.33
2023-02-23T22:46:48.359Z,18.33
2023-02-23T22:49:20.225Z,16.73
2023-02-23T22:51:47.886Z,19.65
2023-02-23T22:54:15.584Z,19.70
2023-02-23T22:59:19.624Z,14.63
2023-02-23T23:01:51.052Z,18.37
2023-02-23T23:04:19.639Z,16.23
2023-02-23T23:06:50.107Z,15.48
2023-02-23T23:09:20.280Z,18.30
2023-02-23T23:11:50.923Z,17.38
2023-02-23T23:14:19.707Z,18.25
2023-02-23T23:16:52.587Z,17.00
2023-02-23T23:19:24.245Z,18.05
2023-02-23T23:21:57.481Z,18.67
2023-02-23T23:24:25.465Z,17.48
2023-02-23T23:29:25.872Z,11.35
2023-02-23T23:31:53.793Z,14.00
2023-02-23T23:34:25.438Z,14.52
2023-02-23T23:36:55.627Z,13.60
2023-02-23T23:39:25.934Z,14.45
2023-02-23T23:42:00.800Z,14.07
2023-02-23T23:44:34.287Z,14.20
2023-02-23T23:47:08.221Z,12.70
2023-02-23T23:49:41.892Z,13.02
2023-02-23T23:52:17.783Z,15.55
2023-02-23T23:54:44.965Z,14.05
2023-02-23T23:57:12.369Z,14.68
2023-02-23T23:59:48.129Z,14.23
